createdAt,value
2022-08-21T00:01:37.324Z,18.80
2022-08-21T00:04:29.322Z,17.47
2022-08-21T00:07:22.736Z,18.20
2022-08-21T00:10:17.101Z,18.33
2022-08-21T00:13:08.510Z,18.07
2022-08-21T00:15:58.351Z,17.63
2022-08-21T00:18:47.935Z,17.80
2022-08-21T00:21:37.993Z,18.33
2022-08-21T00:24:28.426Z,16.73
2022-08-21T00:27:19.365Z,17.73
2022-08-21T00:30:17.743Z,18.13
2022-08-21T00:33:14.250Z,17.40
2022-08-21T00:36:04.829Z,21.40
2022-08-21T00:38:54.372Z,20.40
2022-08-21T00:41:45.180Z,17.07
2022-08-21T00:44:36.182Z,16.77
2022-08-21T00:47:25.776Z,17.63
2022-08-21T00:50:21.629Z,18.33
2022-08-21T00:53:13.362Z,20.67
2022-08-21T00:56:04.415Z,17.37
2022-08-21T00:58:56.458Z,17.67
2022-08-21T01:01:48.117Z,18.27
2022-08-21T01:04:37.679Z,18.10
2022-08-21T01:07:27.641Z,18.27
2022-08-21T01:10:20.605Z,19.57
2022-08-21T01:13:17.236Z,18.37
2022-08-21T01:16:11.905Z,17.97
2022-08-21T01:19:03.932Z,17.80
2022-08-21T01:21:55.885Z,17.83
2022-08-21T01:24:45.478Z,17.53
2022-08-21T01:27:35.412Z,18.93
2022-08-21T01:30:28.746Z,20.53
2022-08-21T01:33:19.334Z,18.10
2022-08-21T01:36:09.635Z,18.20
2022-08-21T01:39:00.599Z,22.43
2022-08-21T01:41:50.190Z,18.87
2022-08-21T01:44:39.824Z,18.70
2022-08-21T01:47:29.505Z,18.23
2022-08-21T01:50:22.399Z,17.67
2022-08-21T01:53:12.005Z,17.97
2022-08-21T01:56:03.519Z,17.87
2022-08-21T01:58:53.149Z,17.67
2022-08-21T02:01:42.848Z,18.20
2022-08-21T02:04:32.657Z,19.73
2022-08-21T02:07:22.278Z,19.27
2022-08-21T02:10:15.091Z,20.40
2022-08-21T02:13:08.323Z,19.90
2022-08-21T02:16:02.979Z,18.27
2022-08-21T02:25:22.252Z,17.60
2022-08-21T02:28:15.873Z,17.83
2022-08-21T02:31:07.591Z,16.73
2022-08-21T02:33:57.171Z,17.03
2022-08-21T02:36:46.706Z,17.50
2022-08-21T02:39:49.211Z,17.40
2022-08-21T02:42:39.706Z,17.20
2022-08-21T02:45:31.297Z,17.20
2022-08-21T02:48:24.984Z,17.93
2022-08-21T02:51:19.451Z,16.93
2022-08-21T02:54:08.966Z,16.87
2022-08-21T02:56:58.484Z,17.83
2022-08-21T02:59:48.047Z,16.57
2022-08-21T03:02:38.969Z,17.37
2022-08-21T03:05:32.942Z,17.40
2022-08-21T03:08:24.280Z,17.40
2022-08-21T03:11:20.163Z,17.27
2022-08-21T03:14:09.734Z,17.80
2022-08-21T03:16:59.327Z,17.30
2022-08-21T03:19:50.314Z,19.23
2022-08-21T03:22:42.767Z,17.43
2022-08-21T03:25:40.573Z,17.87
2022-08-21T03:28:30.697Z,23.33
2022-08-21T03:31:20.312Z,17.57
2022-08-21T03:34:09.966Z,17.77
2022-08-21T03:37:00.876Z,17.63
2022-08-21T03:39:50.406Z,18.30
2022-08-21T03:42:40.018Z,17.93
2022-08-21T03:45:30.045Z,18.47
2022-08-21T03:48:19.671Z,17.27
2022-08-21T03:51:09.556Z,16.80
2022-08-21T03:54:00.636Z,17.33
2022-08-21T03:56:50.421Z,17.23
2022-08-21T03:59:41.215Z,17.43
2022-08-21T04:02:31.454Z,18.57
2022-08-21T04:05:29.026Z,17.53
2022-08-21T04:08:19.664Z,18.20
2022-08-21T04:11:12.358Z,17.90
2022-08-21T04:14:02.494Z,17.13
2022-08-21T04:16:52.004Z,18.17
2022-08-21T04:19:41.477Z,17.97
2022-08-21T04:22:31.075Z,18.03
2022-08-21T04:25:23.681Z,18.80
2022-08-21T04:28:14.591Z,19.47
2022-08-21T04:31:04.231Z,18.17
2022-08-21T04:33:53.881Z,16.90
2022-08-21T04:36:43.438Z,17.73
2022-08-21T04:39:33.130Z,17.20
2022-08-21T04:42:22.618Z,16.53
2022-08-21T04:45:23.141Z,16.60
2022-08-21T04:48:15.857Z,17.10
2022-08-21T04:51:09.778Z,16.90
2022-08-21T04:54:05.421Z,16.77
2022-08-21T04:57:00.499Z,15.97
2022-08-21T04:59:52.610Z,17.47
2022-08-21T05:02:44.193Z,16.53
2022-08-21T05:05:33.841Z,18.30
2022-08-21T05:08:27.913Z,19.10
2022-08-21T05:11:17.536Z,16.63
2022-08-21T05:14:07.084Z,16.87
2022-08-21T05:16:56.631Z,17.47
2022-08-21T05:19:47.551Z,16.87
2022-08-21T05:22:37.154Z,15.27
2022-08-21T05:25:28.117Z,16.63
2022-08-21T05:28:19.028Z,16.00
2022-08-21T05:31:09.219Z,16.13
2022-08-21T05:33:59.171Z,15.80
2022-08-21T05:36:50.422Z,15.33
2022-08-21T05:40:05.393Z,15.87
2022-08-21T05:42:54.584Z,14.70
2022-08-21T05:45:44.939Z,15.50
2022-08-21T05:48:36.178Z,15.17
2022-08-21T05:51:25.730Z,14.70
2022-08-21T05:54:16.648Z,15.00
2022-08-21T05:57:09.498Z,17.43
2022-08-21T05:59:59.015Z,15.00
2022-08-21T06:02:48.530Z,15.90
2022-08-21T06:05:38.776Z,15.17
2022-08-21T06:08:29.171Z,14.70
2022-08-21T06:11:20.887Z,14.40
2022-08-21T06:14:10.451Z,14.83
2022-08-21T06:17:05.548Z,14.90
2022-08-21T06:19:55.996Z,15.47
2022-08-21T06:22:45.673Z,20.57
2022-08-21T06:25:35.552Z,17.50
2022-08-21T06:28:26.849Z,15.57
2022-08-21T06:31:19.588Z,16.10
2022-08-21T06:34:09.074Z,16.23
2022-08-21T06:36:58.612Z,15.20
2022-08-21T06:39:48.183Z,14.93
2022-08-21T06:42:39.082Z,15.83
2022-08-21T06:45:33.858Z,15.60
2022-08-21T06:48:23.490Z,15.13
2022-08-21T06:51:13.294Z,14.20
2022-08-21T06:54:02.826Z,14.50
2022-08-21T06:56:52.602Z,14.20
2022-08-21T06:59:42.146Z,15.37
2022-08-21T07:02:34.524Z,14.23
2022-08-21T07:05:24.751Z,17.00
2022-08-21T07:08:14.287Z,14.67
2022-08-21T07:11:11.891Z,27.03
2022-08-21T07:14:01.518Z,20.97
2022-08-21T07:16:51.832Z,51.40
2022-08-21T07:19:42.697Z,35.90
2022-08-21T07:22:32.715Z,44.60
2022-08-21T07:25:22.570Z,24.57
2022-08-21T07:28:12.149Z,18.97
2022-08-21T07:31:04.073Z,16.77
2022-08-21T07:33:53.856Z,16.50
2022-08-21T07:36:45.144Z,14.77
2022-08-21T07:39:34.737Z,13.80
2022-08-21T07:42:24.348Z,13.87
2022-08-21T07:45:16.508Z,14.33
2022-08-21T07:48:06.671Z,13.43
2022-08-21T07:50:56.655Z,12.50
2022-08-21T07:53:52.863Z,13.63
2022-08-21T07:56:42.517Z,13.50
2022-08-21T07:59:32.101Z,13.87
2022-08-21T08:02:26.678Z,12.60
2022-08-21T08:05:16.316Z,12.70
2022-08-21T08:08:05.950Z,12.63
2022-08-21T08:10:59.590Z,12.93
2022-08-21T08:13:52.739Z,14.07
2022-08-21T08:16:42.310Z,14.20
2022-08-21T08:19:32.592Z,13.80
2022-08-21T08:22:25.677Z,13.00
2022-08-21T08:25:16.636Z,13.10
2022-08-21T08:28:16.396Z,13.10
2022-08-21T08:31:07.349Z,12.77
2022-08-21T08:33:56.840Z,12.57
2022-08-21T08:36:46.445Z,12.97
2022-08-21T08:39:36.977Z,12.90
2022-08-21T08:42:34.651Z,13.50
2022-08-21T08:45:27.340Z,12.47
2022-08-21T08:48:36.982Z,12.90
2022-08-21T08:51:38.453Z,12.67
2022-08-21T08:54:34.306Z,13.10
2022-08-21T08:57:25.767Z,12.53
2022-08-21T09:00:21.680Z,14.77
2022-08-21T09:03:12.749Z,12.67
2022-08-21T09:06:09.488Z,12.87
2022-08-21T09:09:13.824Z,12.00
2022-08-21T09:12:10.633Z,11.97
2022-08-21T09:15:14.289Z,26.53
2022-08-21T09:18:25.830Z,15.60
2022-08-21T09:21:24.405Z,13.33
2022-08-21T09:24:30.376Z,13.23
2022-08-21T09:27:23.160Z,12.07
2022-08-21T09:30:14.014Z,12.10
2022-08-21T09:33:03.928Z,12.03
2022-08-21T09:35:58.758Z,11.20
2022-08-21T09:38:57.612Z,11.53
2022-08-21T09:41:47.228Z,11.30
2022-08-21T09:44:44.402Z,10.60
2022-08-21T09:47:34.027Z,28.97
2022-08-21T09:50:28.393Z,19.90
2022-08-21T09:53:24.864Z,13.70
2022-08-21T09:56:46.322Z,12.13
2022-08-21T09:59:38.275Z,11.60
2022-08-21T10:02:32.579Z,10.93
2022-08-21T10:05:25.940Z,10.57
2022-08-21T10:08:26.188Z,10.27
2022-08-21T10:11:18.942Z,10.20
2022-08-21T10:14:21.162Z,10.80
2022-08-21T10:17:19.888Z,11.50
2022-08-21T10:20:17.212Z,11.20
2022-08-21T10:23:29.757Z,10.00
2022-08-21T10:26:53.146Z,9.70
2022-08-21T10:29:54.117Z,10.03
2022-08-21T10:33:18.839Z,9.60
2022-08-21T10:36:16.848Z,11.40
2022-08-21T10:39:35.570Z,9.70
2022-08-21T10:42:38.507Z,11.20
2022-08-21T10:45:45.095Z,9.70
2022-08-21T10:48:40.921Z,9.63
2022-08-21T10:51:41.378Z,10.37
2022-08-21T10:54:41.255Z,9.30
2022-08-21T10:57:44.378Z,9.90
2022-08-21T11:00:43.276Z,10.07
2022-08-21T11:03:40.262Z,10.57
2022-08-21T11:06:34.161Z,9.83
2022-08-21T11:09:28.134Z,10.40
2022-08-21T11:12:30.284Z,10.03
2022-08-21T11:15:37.513Z,9.40
2022-08-21T11:18:31.520Z,10.33
2022-08-21T11:21:35.614Z,9.93
2022-08-21T11:24:34.657Z,11.43
2022-08-21T11:27:31.817Z,10.63
2022-08-21T11:30:21.610Z,10.03
2022-08-21T11:33:30.942Z,10.37
2022-08-21T11:36:32.710Z,9.70
2022-08-21T11:39:32.571Z,9.90
2022-08-21T11:42:32.806Z,10.10
2022-08-21T11:45:33.334Z,9.50
2022-08-21T11:48:41.313Z,9.87
2022-08-21T11:51:38.798Z,9.30
2022-08-21T11:54:37.810Z,9.40
2022-08-21T11:57:37.058Z,9.27
2022-08-21T12:00:31.516Z,9.47
2022-08-21T12:03:29.649Z,9.50
2022-08-21T12:06:32.517Z,10.20
2022-08-21T12:09:37.972Z,9.40
2022-08-21T12:12:31.831Z,10.10
2022-08-21T12:15:31.102Z,9.50
2022-08-21T12:18:31.584Z,10.00
2022-08-21T12:21:26.075Z,9.70
2022-08-21T12:24:22.598Z,11.30
2022-08-21T12:27:31.184Z,9.30
2022-08-21T12:30:38.263Z,9.77
2022-08-21T12:33:31.868Z,10.10
2022-08-21T12:36:26.966Z,10.07
2022-08-21T12:39:23.490Z,9.87
2022-08-21T12:42:19.876Z,10.53
2022-08-21T12:45:21.640Z,9.80
2022-08-21T12:48:24.177Z,11.90
2022-08-21T12:51:18.305Z,11.00
2022-08-21T12:54:07.919Z,10.20
2022-08-21T12:57:04.413Z,10.27
2022-08-21T12:59:58.921Z,10.33
2022-08-21T13:02:52.293Z,9.80
2022-08-21T13:05:42.734Z,9.93
2022-08-21T13:08:35.411Z,11.80
2022-08-21T13:11:33.815Z,9.80
2022-08-21T13:14:31.614Z,9.90
2022-08-21T13:17:26.018Z,9.90
2022-08-21T13:20:27.452Z,10.33
2022-08-21T13:23:25.608Z,9.80
2022-08-21T13:26:18.704Z,9.97
2022-08-21T13:29:13.401Z,10.00
2022-08-21T13:32:07.820Z,10.67
2022-08-21T13:34:58.756Z,9.60
2022-08-21T13:37:52.712Z,15.97
2022-08-21T13:40:51.739Z,9.90
2022-08-21T13:43:49.043Z,9.90
2022-08-21T13:46:39.328Z,11.33
2022-08-21T13:49:33.388Z,9.50
2022-08-21T13:52:26.756Z,9.30
2022-08-21T13:55:19.711Z,9.70
2022-08-21T13:58:10.769Z,9.60
2022-08-21T14:01:06.448Z,9.77
2022-08-21T14:03:59.681Z,9.70
2022-08-21T14:06:49.630Z,9.33
2022-08-21T14:09:45.418Z,9.10
2022-08-21T14:12:51.739Z,9.70
2022-08-21T14:15:41.574Z,9.60
2022-08-21T14:18:31.910Z,9.70
2022-08-21T14:21:33.391Z,10.80
2022-08-21T14:24:32.060Z,9.50
2022-08-21T14:27:26.221Z,9.60
2022-08-21T14:30:30.525Z,11.40
2022-08-21T14:33:28.283Z,9.90
2022-08-21T14:36:17.868Z,9.70
2022-08-21T14:39:07.469Z,9.57
2022-08-21T14:41:59.174Z,9.60
2022-08-21T14:44:49.133Z,11.30
2022-08-21T14:47:39.983Z,9.77
2022-08-21T14:50:29.571Z,9.87
2022-08-21T14:53:19.115Z,9.60
2022-08-21T14:56:09.165Z,9.80
2022-08-21T14:59:05.852Z,9.60
2022-08-21T15:01:57.193Z,9.33
2022-08-21T15:04:48.196Z,10.20
2022-08-21T15:07:39.150Z,10.10
2022-08-21T15:10:29.205Z,9.93
2022-08-21T15:13:18.775Z,10.53
2022-08-21T15:16:10.747Z,10.17
2022-08-21T15:19:00.386Z,9.47
2022-08-21T15:21:51.384Z,9.50
2022-08-21T15:24:40.953Z,9.67
2022-08-21T15:27:32.299Z,9.83
2022-08-21T15:30:22.082Z,9.77
2022-08-21T15:33:12.113Z,9.63
2022-08-21T15:36:01.724Z,10.33
2022-08-21T15:38:52.643Z,9.60
2022-08-21T15:41:42.858Z,9.40
2022-08-21T15:44:32.613Z,9.90
2022-08-21T15:47:28.609Z,9.60
2022-08-21T15:50:18.660Z,9.33
2022-08-21T15:53:08.617Z,10.17
2022-08-21T15:55:59.621Z,9.30
2022-08-21T15:58:49.273Z,9.60
2022-08-21T16:01:44.638Z,10.47
2022-08-21T16:04:34.824Z,9.57
2022-08-21T16:07:24.700Z,10.63
2022-08-21T16:10:16.801Z,9.60
2022-08-21T16:13:14.444Z,9.70
2022-08-21T16:16:04.841Z,13.70
2022-08-21T16:18:55.237Z,9.73
2022-08-21T16:21:45.146Z,9.67
2022-08-21T16:24:35.269Z,9.70
2022-08-21T16:27:27.390Z,9.73
2022-08-21T16:30:22.997Z,10.20
2022-08-21T16:33:25.250Z,9.93
2022-08-21T16:36:14.869Z,9.67
2022-08-21T16:39:04.962Z,9.80
2022-08-21T16:41:54.611Z,11.23
2022-08-21T16:44:48.487Z,9.90
2022-08-21T16:47:39.833Z,12.43
2022-08-21T16:50:29.402Z,9.73
2022-08-21T16:53:19.270Z,9.43
2022-08-21T16:56:09.819Z,9.90
2022-08-21T16:59:00.476Z,9.60
2022-08-21T17:01:50.131Z,9.97
2022-08-21T17:04:41.046Z,9.77
2022-08-21T17:07:34.037Z,10.07
2022-08-21T17:10:26.174Z,11.10
2022-08-21T17:13:15.865Z,10.00
2022-08-21T17:16:06.113Z,10.23
2022-08-21T17:18:55.664Z,10.10
2022-08-21T17:21:47.051Z,10.20
2022-08-21T17:24:37.470Z,9.90
2022-08-21T17:27:29.124Z,10.77
2022-08-21T17:30:20.712Z,9.90
2022-08-21T17:33:10.447Z,15.00
2022-08-21T17:36:00.214Z,11.97
2022-08-21T17:38:51.506Z,10.73
2022-08-21T17:41:42.873Z,10.40
2022-08-21T17:44:32.944Z,10.43
2022-08-21T17:47:22.864Z,10.27
2022-08-21T17:50:15.041Z,10.13
2022-08-21T17:53:12.283Z,10.13
2022-08-21T17:56:03.379Z,11.50
2022-08-21T17:58:53.694Z,10.13
2022-08-21T18:01:47.145Z,10.00
2022-08-21T18:04:37.267Z,9.80
2022-08-21T18:07:32.295Z,10.10
2022-08-21T18:10:22.626Z,10.30
2022-08-21T18:13:17.555Z,10.00
2022-08-21T18:16:08.492Z,10.10
2022-08-21T18:18:58.804Z,9.70
2022-08-21T18:21:48.490Z,10.07
2022-08-21T18:24:39.214Z,10.10
2022-08-21T18:27:29.829Z,10.37
2022-08-21T18:30:23.549Z,10.00
2022-08-21T18:33:14.889Z,9.70
2022-08-21T18:36:05.044Z,9.70
2022-08-21T18:38:55.044Z,9.63
2022-08-21T18:41:47.323Z,10.57
2022-08-21T18:44:37.014Z,9.90
2022-08-21T18:47:38.230Z,10.03
2022-08-21T18:50:29.877Z,9.97
2022-08-21T18:53:27.759Z,10.30
2022-08-21T18:56:19.587Z,10.00
2022-08-21T18:59:10.310Z,9.90
2022-08-21T19:02:00.226Z,9.60
2022-08-21T19:04:52.813Z,9.80
2022-08-21T19:07:42.702Z,10.00
2022-08-21T19:10:33.773Z,10.10
2022-08-21T19:13:23.780Z,9.90
2022-08-21T19:16:13.503Z,11.50
2022-08-21T19:19:04.680Z,10.57
2022-08-21T19:21:55.936Z,10.03
2022-08-21T19:24:49.713Z,10.53
2022-08-21T19:27:41.463Z,10.87
2022-08-21T19:30:31.705Z,10.60
2022-08-21T19:33:29.508Z,11.00
2022-08-21T19:36:19.411Z,11.17
2022-08-21T19:39:11.985Z,12.60
2022-08-21T19:42:01.951Z,11.77
2022-08-21T19:44:57.453Z,11.80
2022-08-21T19:47:50.818Z,11.47
2022-08-21T19:50:40.430Z,11.33
2022-08-21T19:53:30.072Z,11.33
2022-08-21T19:56:26.037Z,12.77
2022-08-21T19:59:18.638Z,10.70
2022-08-21T20:02:17.380Z,13.53
2022-08-21T20:05:08.799Z,18.97
2022-08-21T20:07:58.531Z,11.30
2022-08-21T20:10:49.803Z,11.40
2022-08-21T20:13:43.310Z,10.73
2022-08-21T20:16:33.813Z,11.77
2022-08-21T20:19:23.702Z,12.07
2022-08-21T20:22:14.226Z,11.60
2022-08-21T20:25:03.857Z,11.70
2022-08-21T20:27:53.481Z,11.53
2022-08-21T20:30:46.819Z,11.97
2022-08-21T20:33:38.538Z,11.60
2022-08-21T20:36:28.300Z,11.97
2022-08-21T20:39:17.946Z,11.47
2022-08-21T20:42:08.162Z,11.90
2022-08-21T20:44:58.134Z,11.77
2022-08-21T20:47:52.625Z,12.33
2022-08-21T20:50:49.314Z,11.73
2022-08-21T20:53:48.021Z,12.23
2022-08-21T20:56:54.156Z,13.70
2022-08-21T20:59:52.229Z,12.07
2022-08-21T21:02:52.038Z,11.70
2022-08-21T21:05:49.592Z,11.80
2022-08-21T21:08:46.665Z,14.60
2022-08-21T21:11:44.365Z,12.50
2022-08-21T21:14:42.353Z,11.07
2022-08-21T21:17:41.090Z,11.30
2022-08-21T21:20:39.154Z,10.80
2022-08-21T21:23:39.692Z,11.00
2022-08-21T21:26:35.590Z,10.97
2022-08-21T21:29:30.050Z,11.07
2022-08-21T21:32:19.702Z,11.50
2022-08-21T21:35:13.919Z,11.20
2022-08-21T21:38:18.504Z,11.13
2022-08-21T21:41:19.057Z,11.23
2022-08-21T21:44:56.562Z,10.77
2022-08-21T21:48:05.937Z,10.70
2022-08-21T21:51:01.025Z,10.80
2022-08-21T21:54:04.054Z,10.63
2022-08-21T21:57:22.152Z,10.53
2022-08-21T22:00:19.307Z,10.83
2022-08-21T22:03:13.896Z,10.50
2022-08-21T22:06:14.166Z,10.30
2022-08-21T22:09:13.344Z,10.77
2022-08-21T22:12:19.817Z,10.90
2022-08-21T22:15:09.707Z,11.00
2022-08-21T22:18:05.072Z,11.87
2022-08-21T22:20:58.432Z,10.47
2022-08-21T22:23:51.679Z,10.33
2022-08-21T22:26:50.590Z,13.43
2022-08-21T22:29:49.699Z,10.50
2022-08-21T22:32:42.770Z,10.20
2022-08-21T22:35:35.261Z,22.00
2022-08-21T22:38:36.209Z,15.77
2022-08-21T22:41:29.342Z,15.03
2022-08-21T22:44:24.663Z,12.53
2022-08-21T22:47:23.568Z,13.80
2022-08-21T22:50:23.713Z,11.73
2022-08-21T22:53:27.427Z,11.37
2022-08-21T22:56:31.751Z,10.93
2022-08-21T22:59:30.425Z,10.40
2022-08-21T23:02:35.088Z,11.33
2022-08-21T23:05:33.544Z,11.17
2022-08-21T23:08:33.330Z,10.90
2022-08-21T23:11:37.630Z,10.60
2022-08-21T23:14:29.790Z,10.70
2022-08-21T23:17:22.316Z,10.50
2022-08-21T23:20:19.307Z,10.27
2022-08-21T23:23:18.630Z,10.37
2022-08-21T23:29:57.922Z,10.47
2022-08-21T23:33:21.305Z,10.07
2022-08-21T23:36:43.787Z,10.37
2022-08-21T23:40:03.029Z,10.07
2022-08-21T23:43:07.678Z,10.57
2022-08-21T23:46:33.809Z,10.57
2022-08-21T23:49:44.025Z,10.40
2022-08-21T23:52:51.135Z,10.80
2022-08-21T23:56:05.810Z,11.20
2022-08-21T23:59:04.981Z,10.83
